Terminal Aerodrome Forecast
Issued by NWS Wilmington, OH

Current Version | Previous Version | Graphics & Text | Print | Product List | Glossary On
Versions: 1 2 3 4 5 6 7 8 9 10 11 12 13 14 15 16 17 18 19 20 21
000
FTUS41 KILN 211729
TAFDAY
TAF
KDAY 211729Z 2118/2218 22009KT P6SM OVC150
     FM220000 20004KT P6SM OVC040
     FM220600 VRB03KT P6SM BKN010 OVC035
     FM220700 VRB03KT 3SM BR OVC015
     FM220900 VRB03KT 2SM BR OVC007
     FM221500 20005KT P6SM BKN007
     FM221700 21006KT P6SM BKN020=

USA.gov is the U.S. government's official web portal to all federal, state and local government web resources and services.